Terminal Aerodrome Forecast
Issued by NWS Grand Forks, ND

Home | Current Version | Previous Version | Graphics & Text | Print | Product List | Glossary On
Versions: 1 2 3 4 5 6 7 8 9 10 11 12 13 14 15 16 17 18 19 20 21 22 23 24 25
952
FTUS43 KFGF 270545 AAA
TAFGFK
TAF AMD
KGFK 270545Z 2706/2806 00000KT P6SM OVC009
      TEMPO 2707/2709 1/2SM FG VV004
     FM270900 00000KT 1/2SM FG BKN010
     FM271300 VRB03KT P6SM OVC008
     FM271800 VRB03KT P6SM OVC035=

USA.gov is the U.S. government's official web portal to all federal, state and local government web resources and services.